This is the latest recevied weather packets stored in our database for station/object K1AWR. If no packets are shown the sender has not sent any weather packets the latest 10 day(s).
| Time | Temp. | Humidity | Pressure | Rain* | Wind** | Luminosity | Snow |
|---|---|---|---|---|---|---|---|
| 1777831380 | 11.67° C | 37% | 1009.3 hPa | 0 mm | - | 208 W/m² | - |
| 1777831075 | 12.22° C | 37% | 1009.4 hPa | 0 mm | - | 195 W/m² | - |
| 1777830774 | 12.78° C | 37% | 1009.5 hPa | 0 mm | - | 826 W/m² | - |
| 1777830475 | 11.11° C | 40% | 1009.3 hPa | 0 mm | - | 550 W/m² | - |
| 1777830173 | 12.78° C | 36% | 1009.4 hPa | 0 mm | - | 882 W/m² | - |
| 1777829868 | 12.22° C | 37% | 1009.3 hPa | 0 mm | - | 818 W/m² | - |
| 1777829564 | 12.22° C | 38% | 1009.5 hPa | 0 mm | - | 824 W/m² | - |
| 1777829261 | 11.67° C | 38% | 1009.3 hPa | 0 mm | - | 894 W/m² | - |
| 1777828958 | 12.78° C | 38% | 1009.1 hPa | 0 mm | - | 856 W/m² | - |
| 1777828655 | 12.78° C | 38% | 1009.3 hPa | 0 mm | - | 987 W/m² | - |
| 1777828352 | 12.22° C | 43% | 1009 hPa | 0 mm | - | 319 W/m² | - |
| 1777828049 | 12.22° C | 39% | 1009.1 hPa | 0 mm | - | 287 W/m² | - |
| 1777827746 | 11.11° C | 43% | 1009.4 hPa | 0 mm | - | 453 W/m² | - |
| 1777827443 | 11.11° C | 39% | 1009.3 hPa | 0 mm | - | 309 W/m² | - |
| 1777827140 | 11.11° C | 37% | 1009.4 hPa | 0 mm | - | 317 W/m² | - |
| 1777826836 | 11.11° C | 38% | 1009.1 hPa | 0 mm | - | 504 W/m² | - |
| 1777826534 | 11.11° C | 40% | 1009.2 hPa | 0 mm | - | 401 W/m² | - |
| 1777826229 | 10.56° C | 40% | 1009 hPa | 0 mm | - | 258 W/m² | - |
| 1777825928 | 10.56° C | 43% | 1008.9 hPa | 0 mm | - | 155 W/m² | - |
| 1777825624 | 10.56° C | 42% | 1009.3 hPa | 0 mm | - | 154 W/m² | - |
| 1777825323 | 11.11° C | 42% | 1009.1 hPa | 0 mm | - | 222 W/m² | - |
| 1777825019 | 11.11° C | 43% | 1009.1 hPa | 0 mm | - | 215 W/m² | - |
| 1777824714 | 10.56° C | 42% | 1009.2 hPa | 0 mm | - | 177 W/m² | - |
| 1777824412 | 10.56° C | 41% | 1009 hPa | 0 mm | - | 167 W/m² | - |
| 1777824107 | 10.56° C | 43% | 1009 hPa | 0 mm | - | 190 W/m² | - |
* Rain latest hour (hover to see other rain measurements)
** Current wind speed in m/s (hover to see current wind gust speed)